createdAt,value
2022-10-14T00:01:20.461Z,14.19
2022-10-14T00:03:47.855Z,14.34
2022-10-14T00:06:20.710Z,14.33
2022-10-14T00:08:49.992Z,13.90
2022-10-14T00:11:21.238Z,14.66
2022-10-14T00:13:48.347Z,14.33
2022-10-14T00:16:16.560Z,14.17
2022-10-14T00:18:43.104Z,14.17
2022-10-14T00:21:09.841Z,14.94
2022-10-14T00:23:36.479Z,15.68
2022-10-14T00:26:03.020Z,15.41
2022-10-14T00:28:29.691Z,15.97
2022-10-14T00:30:57.428Z,16.41
2022-10-14T00:33:24.783Z,15.72
2022-10-14T00:35:58.275Z,15.54
2022-10-14T00:38:25.304Z,15.31
2022-10-14T00:40:52.891Z,16.32
2022-10-14T00:43:20.847Z,15.87
2022-10-14T00:45:47.491Z,15.84
2022-10-14T00:51:38.195Z,18.24
2022-10-14T00:54:05.032Z,17.21
2022-10-14T00:56:32.013Z,16.91
2022-10-14T00:59:00.572Z,16.79
2022-10-14T01:01:27.113Z,16.89
2022-10-14T01:03:53.734Z,16.52
2022-10-14T01:06:32.273Z,16.26
2022-10-14T01:09:14.066Z,17.62
2022-10-14T01:12:04.242Z,16.98
2022-10-14T01:15:05.069Z,17.11
2022-10-14T01:17:46.791Z,17.21
2022-10-14T01:20:36.379Z,17.51
2022-10-14T01:23:17.925Z,16.96
2022-10-14T01:25:44.388Z,16.41
2022-10-14T01:28:13.898Z,16.96
2022-10-14T01:30:44.491Z,16.91
2022-10-14T01:33:11.062Z,16.91
2022-10-14T01:35:37.766Z,17.59
2022-10-14T01:38:11.577Z,18.07
2022-10-14T01:40:49.596Z,18.23
2022-10-14T01:43:19.129Z,18.21
2022-10-14T01:45:48.420Z,18.33
2022-10-14T01:48:18.907Z,18.21
2022-10-14T01:50:49.146Z,17.17
2022-10-14T01:53:21.512Z,17.36
2022-10-14T01:55:49.202Z,19.60
2022-10-14T01:58:18.272Z,19.99
2022-10-14T02:00:44.819Z,20.10
2022-10-14T02:03:14.496Z,20.36
2022-10-14T02:06:01.219Z,20.65
2022-10-14T02:08:50.986Z,22.38
2022-10-14T02:11:19.401Z,22.45
2022-10-14T02:13:46.020Z,22.63
2022-10-14T02:16:34.053Z,22.44
2022-10-14T02:19:20.950Z,22.29
2022-10-14T02:22:16.702Z,22.69
2022-10-14T02:24:48.420Z,22.63
2022-10-14T02:27:18.749Z,22.14
2022-10-14T02:29:47.236Z,24.27
2022-10-14T02:32:16.935Z,24.49
2022-10-14T02:34:46.894Z,23.93
2022-10-14T02:37:16.879Z,24.02
2022-10-14T02:39:52.098Z,25.06
2022-10-14T02:42:18.973Z,26.25
2022-10-14T02:44:53.289Z,27.14
2022-10-14T02:47:20.207Z,27.76
2022-10-14T02:49:46.762Z,27.13
2022-10-14T02:52:13.482Z,26.54
2022-10-14T02:54:40.018Z,26.76
2022-10-14T02:57:06.555Z,27.09
2022-10-14T02:59:33.100Z,27.06
2022-10-14T03:01:59.646Z,29.53
2022-10-14T03:04:26.436Z,30.15
2022-10-14T03:06:53.957Z,28.15
2022-10-14T03:09:20.513Z,27.87
2022-10-14T03:11:47.028Z,28.68
2022-10-14T03:14:13.936Z,27.40
2022-10-14T03:16:40.473Z,27.47
2022-10-14T03:19:07.025Z,26.70
2022-10-14T03:21:33.753Z,27.69
2022-10-14T03:24:01.653Z,28.04
2022-10-14T03:26:28.873Z,27.62
2022-10-14T03:28:55.565Z,28.75
2022-10-14T03:31:22.136Z,28.61
2022-10-14T03:33:48.674Z,28.13
2022-10-14T03:36:15.312Z,29.12
2022-10-14T03:38:41.844Z,28.27
2022-10-14T03:41:08.419Z,28.25
2022-10-14T03:43:35.022Z,27.76
2022-10-14T03:46:01.549Z,28.70
2022-10-14T03:48:28.086Z,28.48
2022-10-14T03:50:54.630Z,27.93
2022-10-14T03:53:21.157Z,27.79
2022-10-14T03:55:47.698Z,27.37
2022-10-14T03:58:14.440Z,27.68
2022-10-14T04:00:40.966Z,28.44
2022-10-14T04:03:07.501Z,26.96
2022-10-14T04:05:35.012Z,27.98
2022-10-14T04:08:02.212Z,27.48
2022-10-14T04:10:28.949Z,28.35
2022-10-14T04:12:55.705Z,27.77
2022-10-14T04:15:23.034Z,28.12
2022-10-14T04:17:50.013Z,28.10
2022-10-14T04:20:16.961Z,27.94
2022-10-14T04:22:43.475Z,28.46
2022-10-14T04:25:10.117Z,29.02
2022-10-14T04:27:36.853Z,29.02
2022-10-14T04:30:03.708Z,28.45
2022-10-14T04:32:30.215Z,28.18
2022-10-14T04:34:56.879Z,28.39
2022-10-14T04:37:23.497Z,28.51
2022-10-14T04:39:50.058Z,28.22
2022-10-14T04:42:16.673Z,27.86
2022-10-14T04:44:43.152Z,29.30
2022-10-14T04:47:09.731Z,29.34
2022-10-14T04:49:36.264Z,29.39
2022-10-14T04:52:02.809Z,29.72
2022-10-14T04:54:29.338Z,28.85
2022-10-14T04:56:55.875Z,29.97
2022-10-14T04:59:22.759Z,30.36
2022-10-14T05:01:49.405Z,30.32
2022-10-14T05:04:15.989Z,29.12
2022-10-14T05:06:42.518Z,29.38
2022-10-14T05:09:09.513Z,29.54
2022-10-14T05:11:36.041Z,30.12
2022-10-14T05:14:02.656Z,30.11
2022-10-14T05:16:29.296Z,29.35
2022-10-14T05:18:55.828Z,30.28
2022-10-14T05:21:22.466Z,30.58
2022-10-14T05:23:49.135Z,30.05
2022-10-14T05:26:15.741Z,31.04
2022-10-14T05:28:42.447Z,29.95
2022-10-14T05:31:09.407Z,29.92
2022-10-14T05:33:36.470Z,31.45
2022-10-14T05:36:03.110Z,30.69
2022-10-14T05:38:31.576Z,30.79
2022-10-14T05:40:58.224Z,29.17
2022-10-14T05:43:31.003Z,30.55
2022-10-14T05:45:58.883Z,29.85
2022-10-14T05:48:25.949Z,29.24
2022-10-14T05:50:52.537Z,29.31
2022-10-14T05:53:19.074Z,28.83
2022-10-14T05:55:45.629Z,28.03
2022-10-14T05:58:12.200Z,27.84
2022-10-14T06:00:38.997Z,26.50
2022-10-14T06:03:05.627Z,25.89
2022-10-14T06:05:34.859Z,24.75
2022-10-14T06:08:01.474Z,25.18
2022-10-14T06:10:28.037Z,24.58
2022-10-14T06:12:54.677Z,21.87
2022-10-14T06:15:21.191Z,22.45
2022-10-14T06:17:47.698Z,21.34
2022-10-14T06:20:14.269Z,20.02
2022-10-14T06:22:40.973Z,21.13
2022-10-14T06:25:07.741Z,18.94
2022-10-14T06:27:34.384Z,18.30
2022-10-14T06:30:00.929Z,18.28
2022-10-14T06:32:27.559Z,17.87
2022-10-14T06:34:54.161Z,17.43
2022-10-14T06:37:20.701Z,16.83
2022-10-14T06:39:47.338Z,16.48
2022-10-14T06:42:13.893Z,16.90
2022-10-14T06:44:40.454Z,16.66
2022-10-14T06:47:08.109Z,16.69
2022-10-14T06:49:34.902Z,15.50
2022-10-14T06:52:01.490Z,15.18
2022-10-14T06:54:28.030Z,15.68
2022-10-14T06:56:54.615Z,15.57
2022-10-14T06:59:21.513Z,15.21
2022-10-14T07:01:48.202Z,14.14
2022-10-14T07:04:14.828Z,14.09
2022-10-14T07:06:41.403Z,13.87
2022-10-14T07:09:07.904Z,13.20
2022-10-14T07:11:34.531Z,12.76
2022-10-14T07:14:01.104Z,12.54
2022-10-14T07:16:31.150Z,11.80
2022-10-14T07:18:57.717Z,11.71
2022-10-14T07:21:24.373Z,11.72
2022-10-14T07:23:50.935Z,11.79
2022-10-14T07:26:17.531Z,12.18
2022-10-14T07:28:44.322Z,11.10
2022-10-14T07:31:11.219Z,11.57
2022-10-14T07:33:39.347Z,11.80
2022-10-14T07:36:08.420Z,11.53
2022-10-14T07:38:35.252Z,11.21
2022-10-14T07:41:06.826Z,12.36
2022-10-14T07:43:33.992Z,11.37
2022-10-14T07:46:02.621Z,11.63
2022-10-14T07:48:32.849Z,12.12
2022-10-14T07:51:11.466Z,11.92
2022-10-14T07:53:38.041Z,12.54
2022-10-14T07:56:04.759Z,12.39
2022-10-14T07:58:31.514Z,12.71
2022-10-14T08:00:58.791Z,12.03
2022-10-14T08:03:25.453Z,11.27
2022-10-14T08:05:58.034Z,11.66
2022-10-14T08:08:24.636Z,12.22
2022-10-14T08:11:00.992Z,11.94
2022-10-14T08:13:27.938Z,11.42
2022-10-14T08:15:54.466Z,12.80
2022-10-14T08:18:21.017Z,12.99
2022-10-14T08:20:47.538Z,15.14
2022-10-14T08:23:17.489Z,14.34
2022-10-14T08:25:48.493Z,14.05
2022-10-14T08:28:15.207Z,13.89
2022-10-14T08:30:41.847Z,13.20
2022-10-14T08:33:08.485Z,13.66
2022-10-14T08:35:35.195Z,14.05
2022-10-14T08:38:02.054Z,14.13
2022-10-14T08:40:30.863Z,13.93
2022-10-14T08:43:02.880Z,14.18
2022-10-14T08:45:36.177Z,13.90
2022-10-14T08:48:09.061Z,15.19
2022-10-14T08:50:35.602Z,14.72
2022-10-14T08:53:02.143Z,15.57
2022-10-14T08:55:44.022Z,15.06
2022-10-14T09:01:01.995Z,17.29
2022-10-14T09:03:33.471Z,17.13
2022-10-14T09:06:02.419Z,17.85
2022-10-14T09:08:42.571Z,17.87
2022-10-14T09:11:33.550Z,18.81
2022-10-14T09:14:02.788Z,19.53
2022-10-14T09:16:31.597Z,19.98
2022-10-14T09:19:00.369Z,19.63
2022-10-14T09:21:51.652Z,21.10
2022-10-14T09:24:35.623Z,20.90
2022-10-14T09:27:06.770Z,21.29
2022-10-14T09:29:46.094Z,21.42
2022-10-14T09:32:15.924Z,21.08
2022-10-14T09:34:46.642Z,20.42
2022-10-14T09:37:24.648Z,20.59
2022-10-14T09:39:53.503Z,18.67
2022-10-14T09:42:24.311Z,19.28
2022-10-14T09:45:05.064Z,18.18
2022-10-14T09:47:32.078Z,18.20
2022-10-14T09:50:00.873Z,17.42
2022-10-14T09:52:30.098Z,16.30
2022-10-14T09:54:59.381Z,16.29
2022-10-14T09:57:27.355Z,14.49
2022-10-14T09:59:59.404Z,13.81
2022-10-14T10:02:35.154Z,14.34
2022-10-14T10:05:12.287Z,15.00
2022-10-14T10:07:38.962Z,14.90
2022-10-14T10:10:19.881Z,15.00
2022-10-14T10:12:47.293Z,16.22
2022-10-14T10:15:18.776Z,16.95
2022-10-14T10:17:46.130Z,17.87
2022-10-14T10:20:18.686Z,18.14
2022-10-14T10:22:45.623Z,16.61
2022-10-14T10:25:15.142Z,17.34
2022-10-14T10:27:45.802Z,17.76
2022-10-14T10:30:15.362Z,18.41
2022-10-14T10:32:47.224Z,18.09
2022-10-14T10:35:23.495Z,17.51
2022-10-14T10:37:57.307Z,17.09
2022-10-14T10:40:24.639Z,16.61
2022-10-14T10:43:11.861Z,17.12
2022-10-14T10:45:50.382Z,16.66
2022-10-14T10:48:26.134Z,16.07
2022-10-14T10:51:10.013Z,15.98
2022-10-14T10:53:55.586Z,15.04
2022-10-14T10:56:39.035Z,14.60
2022-10-14T10:59:06.833Z,13.83
2022-10-14T11:01:49.139Z,13.19
2022-10-14T11:04:28.049Z,14.19
2022-10-14T11:07:27.016Z,13.69
2022-10-14T11:10:28.737Z,12.58
2022-10-14T11:13:01.648Z,12.95
2022-10-14T11:15:43.267Z,12.14
2022-10-14T11:18:09.919Z,12.12
2022-10-14T11:20:57.684Z,11.52
2022-10-14T11:23:40.505Z,10.81
2022-10-14T11:26:25.593Z,10.99
2022-10-14T11:29:04.151Z,11.53
2022-10-14T11:31:36.559Z,11.30
2022-10-14T11:34:16.002Z,11.23
2022-10-14T11:36:42.515Z,11.04
2022-10-14T11:39:24.414Z,11.24
2022-10-14T11:41:57.196Z,11.62
2022-10-14T11:44:25.064Z,11.99
2022-10-14T11:46:56.360Z,12.09
2022-10-14T11:49:28.066Z,12.24
2022-10-14T11:52:04.152Z,12.17
2022-10-14T11:54:35.056Z,12.07
2022-10-14T11:57:06.029Z,12.14
2022-10-14T11:59:36.877Z,12.53
2022-10-14T12:02:26.635Z,12.86
2022-10-14T12:04:58.302Z,13.20
2022-10-14T12:07:31.795Z,12.94
2022-10-14T12:10:02.822Z,11.99
2022-10-14T12:12:30.786Z,11.59
2022-10-14T12:15:05.955Z,11.70
2022-10-14T12:17:37.500Z,11.89
2022-10-14T12:20:24.377Z,11.95
2022-10-14T12:22:52.721Z,11.79
2022-10-14T12:25:24.324Z,11.41
2022-10-14T12:27:52.324Z,10.63
2022-10-14T12:30:33.347Z,11.11
2022-10-14T12:33:22.891Z,10.50
2022-10-14T12:35:50.597Z,10.10
2022-10-14T12:38:17.744Z,9.41
2022-10-14T12:40:44.507Z,9.74
2022-10-14T12:43:14.187Z,9.34
2022-10-14T12:45:49.036Z,8.74
2022-10-14T12:48:21.496Z,8.70
2022-10-14T12:50:50.229Z,8.62
2022-10-14T12:53:29.323Z,8.24
2022-10-14T12:56:01.175Z,7.23
2022-10-14T12:58:30.591Z,6.78
2022-10-14T13:01:17.852Z,6.60
2022-10-14T13:03:52.885Z,6.35
2022-10-14T13:06:31.642Z,7.16
2022-10-14T13:09:13.862Z,6.90
2022-10-14T13:11:42.276Z,6.58
2022-10-14T13:14:24.048Z,6.59
2022-10-14T13:16:53.840Z,5.72
2022-10-14T13:19:46.520Z,5.65
2022-10-14T13:22:31.369Z,4.90
2022-10-14T13:25:30.650Z,4.38
2022-10-14T13:28:00.205Z,3.99
2022-10-14T13:30:34.059Z,2.82
2022-10-14T13:33:10.556Z,2.60
2022-10-14T13:35:55.953Z,2.66
2022-10-14T13:38:24.496Z,2.35
2022-10-14T13:40:53.372Z,2.30
2022-10-14T13:43:28.853Z,2.15
2022-10-14T13:46:07.638Z,2.27
2022-10-14T13:48:37.361Z,2.35
2022-10-14T13:51:24.381Z,2.45
2022-10-14T13:54:00.105Z,2.52
2022-10-14T13:56:27.979Z,2.42
2022-10-14T13:58:55.221Z,2.60
2022-10-14T14:01:24.788Z,2.60
2022-10-14T14:03:53.653Z,2.81
2022-10-14T14:06:21.704Z,2.95
2022-10-14T14:08:48.653Z,3.05
2022-10-14T14:11:21.644Z,3.02
2022-10-14T14:13:59.000Z,3.59
2022-10-14T14:16:39.563Z,3.26
2022-10-14T14:19:09.471Z,2.97
2022-10-14T14:21:36.475Z,3.09
2022-10-14T14:24:10.631Z,3.05
2022-10-14T14:26:38.822Z,3.42
2022-10-14T14:29:17.349Z,3.28
2022-10-14T14:32:05.655Z,3.66
2022-10-14T14:34:31.911Z,3.96
2022-10-14T14:37:10.757Z,4.04
2022-10-14T14:39:54.803Z,3.82
2022-10-14T14:42:23.432Z,4.02
2022-10-14T14:44:51.440Z,3.89
2022-10-14T14:47:18.172Z,3.55
2022-10-14T14:49:46.305Z,2.98
2022-10-14T14:52:14.797Z,3.07
2022-10-14T14:54:48.224Z,2.56
2022-10-14T14:57:19.932Z,2.60
2022-10-14T15:00:06.963Z,2.40
2022-10-14T15:02:35.090Z,2.49
2022-10-14T15:05:06.550Z,2.67
2022-10-14T15:07:34.842Z,2.73
2022-10-14T15:10:03.714Z,2.52
2022-10-14T15:12:34.127Z,2.73
2022-10-14T15:15:02.179Z,2.78
2022-10-14T15:17:31.231Z,2.46
2022-10-14T15:19:59.647Z,2.60
2022-10-14T15:22:36.965Z,2.31
2022-10-14T15:25:12.080Z,2.41
2022-10-14T15:27:40.826Z,2.30
2022-10-14T15:30:31.398Z,2.31
2022-10-14T15:33:00.317Z,2.57
2022-10-14T15:35:27.575Z,2.60
2022-10-14T15:37:54.375Z,2.77
2022-10-14T15:40:28.346Z,2.36
2022-10-14T15:42:55.088Z,2.51
2022-10-14T15:45:21.942Z,2.74
2022-10-14T15:47:53.580Z,2.70
2022-10-14T15:50:22.062Z,2.58
2022-10-14T15:52:48.904Z,2.98
2022-10-14T15:55:20.492Z,3.47
2022-10-14T15:57:47.631Z,2.85
2022-10-14T16:00:14.647Z,5.26
2022-10-14T16:02:43.468Z,3.52
2022-10-14T16:05:25.393Z,3.15
2022-10-14T16:07:52.292Z,3.41
2022-10-14T16:10:20.666Z,3.60
2022-10-14T16:12:47.598Z,3.61
2022-10-14T16:15:14.154Z,3.81
2022-10-14T16:17:40.714Z,4.52
2022-10-14T16:20:09.986Z,14.17
2022-10-14T16:22:36.451Z,11.83
2022-10-14T16:25:03.411Z,10.07
2022-10-14T16:27:29.938Z,9.02
2022-10-14T16:29:56.490Z,13.89
2022-10-14T16:32:23.115Z,9.33
2022-10-14T16:34:49.746Z,8.85
2022-10-14T16:37:16.843Z,10.69
2022-10-14T16:39:43.389Z,9.39
2022-10-14T16:42:09.996Z,8.45
2022-10-14T16:44:36.714Z,8.88
2022-10-14T16:47:19.467Z,9.45
2022-10-14T16:49:51.980Z,11.15
2022-10-14T16:52:18.917Z,17.37
2022-10-14T16:54:45.544Z,25.59
2022-10-14T16:57:12.514Z,70.39
2022-10-14T16:59:39.547Z,77.90
2022-10-14T17:02:10.562Z,33.23
2022-10-14T17:04:37.907Z,20.70
2022-10-14T17:07:07.516Z,11.59
2022-10-14T17:09:38.780Z,18.00
2022-10-14T17:12:09.407Z,15.11
2022-10-14T17:14:39.607Z,15.43
2022-10-14T17:17:06.144Z,13.12
2022-10-14T17:19:32.683Z,16.14
2022-10-14T17:22:02.007Z,15.71
2022-10-14T17:24:28.770Z,13.20
2022-10-14T17:26:55.969Z,12.96
2022-10-14T17:29:22.707Z,12.61
2022-10-14T17:31:49.273Z,12.63
2022-10-14T17:34:15.944Z,13.81
2022-10-14T17:36:42.645Z,14.86
2022-10-14T17:39:16.469Z,21.86
2022-10-14T17:41:48.093Z,23.69
2022-10-14T17:44:14.831Z,18.80
2022-10-14T17:46:41.388Z,23.12
2022-10-14T17:49:10.970Z,20.47
2022-10-14T17:51:38.688Z,15.15
2022-10-14T17:54:06.951Z,13.67
2022-10-14T17:56:35.690Z,13.70
2022-10-14T17:59:04.493Z,14.11
2022-10-14T18:01:37.731Z,14.97
2022-10-14T18:04:10.944Z,15.39
2022-10-14T18:06:37.702Z,14.59
2022-10-14T18:09:06.004Z,15.55
2022-10-14T18:11:56.310Z,16.35
2022-10-14T18:14:21.910Z,17.04
2022-10-14T18:16:48.720Z,16.53
2022-10-14T18:19:16.721Z,15.17
2022-10-14T18:21:44.385Z,15.35
2022-10-14T18:24:11.708Z,15.14
2022-10-14T18:26:40.606Z,14.99
2022-10-14T18:29:07.602Z,14.86
2022-10-14T18:31:34.591Z,17.00
2022-10-14T18:34:01.880Z,15.65
2022-10-14T18:36:30.334Z,15.23
2022-10-14T18:39:01.373Z,16.32
2022-10-14T18:41:28.305Z,15.19
2022-10-14T18:43:57.251Z,15.50
2022-10-14T18:46:34.807Z,16.77
2022-10-14T18:49:02.575Z,16.98
2022-10-14T18:51:30.852Z,17.52
2022-10-14T18:53:59.155Z,17.26
2022-10-14T18:56:27.936Z,17.27
2022-10-14T18:58:56.999Z,17.23
2022-10-14T19:01:24.335Z,17.18
2022-10-14T19:03:51.320Z,18.17
2022-10-14T19:06:18.944Z,31.06
2022-10-14T19:08:46.331Z,27.79
2022-10-14T19:11:19.864Z,33.19
2022-10-14T19:13:48.072Z,27.73
2022-10-14T19:16:16.079Z,23.91
2022-10-14T19:18:43.314Z,18.66
2022-10-14T19:21:12.214Z,15.59
2022-10-14T19:23:40.302Z,16.16
2022-10-14T19:26:12.411Z,15.48
2022-10-14T19:28:39.802Z,15.11
2022-10-14T19:31:07.352Z,15.78
2022-10-14T19:33:41.265Z,16.47
2022-10-14T19:36:08.331Z,16.14
2022-10-14T19:38:36.053Z,16.13
2022-10-14T19:41:04.047Z,16.66
2022-10-14T19:43:30.768Z,16.12
2022-10-14T19:45:59.145Z,15.44
2022-10-14T19:48:25.884Z,17.14
2022-10-14T19:50:53.465Z,18.75
2022-10-14T19:53:20.143Z,16.91
2022-10-14T19:55:46.707Z,17.30
2022-10-14T19:58:13.244Z,17.59
2022-10-14T20:00:39.918Z,17.48
2022-10-14T20:03:06.520Z,16.97
2022-10-14T20:05:33.065Z,17.48
2022-10-14T20:07:59.611Z,19.74
2022-10-14T20:10:26.221Z,20.37
2022-10-14T20:12:52.757Z,21.16
2022-10-14T20:15:19.396Z,21.11
2022-10-14T20:17:46.341Z,22.55
2022-10-14T20:20:13.032Z,23.75
2022-10-14T20:22:39.717Z,22.03
2022-10-14T20:25:06.357Z,22.57
2022-10-14T20:27:32.915Z,22.02
2022-10-14T20:29:59.468Z,21.41
2022-10-14T20:32:26.061Z,21.50
2022-10-14T20:34:52.709Z,20.85
2022-10-14T20:37:21.940Z,21.01
2022-10-14T20:39:50.892Z,20.40
2022-10-14T20:42:17.486Z,21.52
2022-10-14T20:44:43.984Z,21.57
2022-10-14T20:47:10.725Z,20.67
2022-10-14T20:49:37.469Z,21.39
2022-10-14T20:52:04.035Z,21.66
2022-10-14T20:54:30.610Z,21.02
2022-10-14T20:56:57.152Z,20.87
2022-10-14T20:59:23.992Z,21.19
2022-10-14T21:01:50.568Z,21.82
2022-10-14T21:04:17.154Z,20.89
2022-10-14T21:06:43.718Z,21.36
2022-10-14T21:09:10.889Z,22.56
2022-10-14T21:11:37.701Z,23.52
2022-10-14T21:14:04.243Z,22.09
2022-10-14T21:16:32.977Z,23.23
2022-10-14T21:19:02.721Z,22.74
2022-10-14T21:21:31.511Z,22.48
2022-10-14T21:23:59.104Z,23.36
2022-10-14T21:26:25.851Z,23.48
2022-10-14T21:28:52.795Z,23.32
2022-10-14T21:31:20.126Z,23.71
2022-10-14T21:33:47.668Z,23.64
2022-10-14T21:36:15.436Z,23.33
2022-10-14T21:38:42.381Z,23.36
2022-10-14T21:41:09.066Z,22.87
2022-10-14T21:43:37.304Z,22.91
2022-10-14T21:46:09.211Z,23.23
2022-10-14T21:48:35.775Z,22.91
2022-10-14T21:51:28.829Z,23.35
2022-10-14T21:53:56.298Z,22.81
2022-10-14T21:56:23.944Z,23.62
2022-10-14T21:58:50.792Z,23.20
2022-10-14T22:01:17.332Z,23.32
2022-10-14T22:03:44.748Z,23.34
2022-10-14T22:06:14.086Z,22.56
2022-10-14T22:08:42.870Z,23.52
2022-10-14T22:11:41.762Z,22.72
2022-10-14T22:14:11.162Z,22.52
2022-10-14T22:16:37.703Z,23.06
2022-10-14T22:19:06.296Z,22.42
2022-10-14T22:21:34.566Z,23.23
2022-10-14T22:24:01.674Z,23.30
2022-10-14T22:26:28.956Z,23.28
2022-10-14T22:29:11.780Z,22.84
2022-10-14T22:31:38.618Z,23.23
2022-10-14T22:34:06.615Z,23.08
2022-10-14T22:36:34.486Z,22.51
2022-10-14T22:39:02.589Z,22.86
2022-10-14T22:41:34.897Z,22.85
2022-10-14T22:44:01.749Z,21.85
2022-10-14T22:46:30.007Z,23.11
2022-10-14T22:48:57.837Z,22.84
2022-10-14T22:51:28.947Z,22.83
2022-10-14T22:53:56.028Z,22.97
2022-10-14T22:56:24.598Z,22.38
2022-10-14T22:58:54.791Z,22.65
2022-10-14T23:01:21.555Z,21.62
2022-10-14T23:03:48.756Z,21.96
2022-10-14T23:06:15.601Z,21.77
2022-10-14T23:08:42.755Z,22.38
2022-10-14T23:11:13.185Z,21.79
2022-10-14T23:13:39.759Z,21.64
2022-10-14T23:16:08.328Z,21.69
2022-10-14T23:18:36.833Z,22.04
2022-10-14T23:21:15.631Z,22.11
2022-10-14T23:23:42.910Z,22.99
2022-10-14T23:26:10.527Z,21.59
2022-10-14T23:28:37.734Z,21.96
2022-10-14T23:31:08.753Z,22.01
2022-10-14T23:33:35.340Z,22.58
2022-10-14T23:36:06.075Z,23.12
2022-10-14T23:38:33.744Z,22.20
2022-10-14T23:41:02.719Z,22.37
2022-10-14T23:43:30.390Z,22.84
2022-10-14T23:45:57.027Z,22.69
2022-10-14T23:48:23.699Z,23.59
2022-10-14T23:50:50.298Z,23.73
2022-10-14T23:53:17.492Z,23.98
2022-10-14T23:55:44.318Z,24.43
2022-10-14T23:58:11.026Z,23.91
